createdAt,value
2018-07-11T00:01:22.655Z,17.41
2018-07-11T00:03:54.080Z,17.48
2018-07-11T00:06:25.347Z,17.43
2018-07-11T00:08:55.584Z,17.38
2018-07-11T00:11:25.817Z,17.30
2018-07-11T00:13:56.065Z,17.27
2018-07-11T00:16:26.586Z,17.35
2018-07-11T00:18:56.613Z,17.45
2018-07-11T00:21:26.908Z,17.38
2018-07-11T00:23:57.157Z,17.29
2018-07-11T00:26:27.464Z,17.24
2018-07-11T00:31:33.070Z,17.08
2018-07-11T00:34:03.294Z,17.04
2018-07-11T00:36:33.581Z,17.08
2018-07-11T00:39:04.906Z,17.02
2018-07-11T00:41:35.042Z,16.96
2018-07-11T00:44:05.118Z,16.90
2018-07-11T00:46:35.207Z,16.92
2018-07-11T00:49:05.527Z,16.89
2018-07-11T00:51:35.813Z,16.96
2018-07-11T00:54:05.885Z,17.09
2018-07-11T00:56:36.173Z,17.09
2018-07-11T00:59:12.666Z,17.10
2018-07-11T01:01:42.992Z,17.12
2018-07-11T01:04:13.217Z,17.31
2018-07-11T01:06:43.317Z,17.27
2018-07-11T01:09:13.446Z,17.26
2018-07-11T01:11:43.513Z,17.09
2018-07-11T01:14:13.801Z,17.08
2018-07-11T01:16:43.848Z,17.00
2018-07-11T01:19:15.056Z,16.85
2018-07-11T01:21:45.385Z,16.85
2018-07-11T01:24:15.697Z,16.81
2018-07-11T01:26:45.806Z,16.74
2018-07-11T01:29:16.030Z,16.69
2018-07-11T01:31:46.310Z,16.71
2018-07-11T01:34:16.566Z,16.73
2018-07-11T01:36:46.753Z,16.78
2018-07-11T01:39:17.038Z,16.82
2018-07-11T01:41:47.610Z,16.82
2018-07-11T01:44:17.840Z,16.76
2018-07-11T01:46:50.357Z,16.70
2018-07-11T01:49:20.654Z,16.74
2018-07-11T01:52:02.064Z,16.69
2018-07-11T01:54:32.063Z,16.63
2018-07-11T01:57:02.374Z,16.61
2018-07-11T01:59:35.783Z,16.59
2018-07-11T02:02:06.344Z,16.60
2018-07-11T02:04:39.505Z,16.66
2018-07-11T02:07:10.173Z,16.66
2018-07-11T02:09:40.231Z,16.73
2018-07-11T02:12:10.534Z,16.88
2018-07-11T02:14:41.216Z,16.94
2018-07-11T02:17:11.474Z,16.87
2018-07-11T02:19:41.801Z,16.87
2018-07-11T02:22:12.069Z,16.84
2018-07-11T02:24:42.392Z,16.80
2018-07-11T02:27:12.410Z,16.78
2018-07-11T02:29:42.618Z,16.78
2018-07-11T02:32:12.897Z,16.86
2018-07-11T02:34:43.176Z,16.86
2018-07-11T02:37:13.596Z,16.88
2018-07-11T02:39:43.850Z,16.91
2018-07-11T02:42:14.151Z,17.06
2018-07-11T02:44:44.388Z,17.02
2018-07-11T02:47:45.417Z,17.02
2018-07-11T02:50:15.944Z,16.95
2018-07-11T02:52:46.356Z,16.92
2018-07-11T02:55:16.566Z,16.89
2018-07-11T02:57:46.882Z,16.88
2018-07-11T03:00:17.122Z,16.86
2018-07-11T03:02:47.333Z,16.91
2018-07-11T03:05:17.630Z,16.92
2018-07-11T03:07:47.891Z,16.97
2018-07-11T03:10:17.849Z,16.96
2018-07-11T03:12:48.084Z,16.94
2018-07-11T03:15:18.597Z,16.95
2018-07-11T03:17:48.700Z,17.02
2018-07-11T03:20:18.907Z,17.01
2018-07-11T03:22:49.231Z,16.96
2018-07-11T03:25:19.429Z,17.00
2018-07-11T03:27:49.665Z,17.01
2018-07-11T03:30:19.881Z,17.07
2018-07-11T03:32:50.367Z,17.05
2018-07-11T03:35:20.645Z,17.06
2018-07-11T03:37:51.177Z,17.05
2018-07-11T03:40:21.645Z,17.03
2018-07-11T03:42:51.838Z,17.03
2018-07-11T03:45:22.096Z,17.03
2018-07-11T03:47:52.329Z,17.11
2018-07-11T03:50:22.605Z,17.11
2018-07-11T03:52:52.913Z,17.16
2018-07-11T03:55:23.143Z,17.15
2018-07-11T03:57:53.344Z,17.18
2018-07-11T04:00:26.063Z,17.16
2018-07-11T04:02:57.495Z,17.16
2018-07-11T04:05:27.693Z,17.24
2018-07-11T04:07:57.903Z,17.33
2018-07-11T04:10:28.085Z,17.33
2018-07-11T04:13:01.246Z,17.29
2018-07-11T04:15:31.465Z,17.26
2018-07-11T04:18:01.675Z,17.24
2018-07-11T04:20:31.887Z,17.21
2018-07-11T04:23:02.093Z,17.18
2018-07-11T04:25:32.346Z,17.20
2018-07-11T04:28:02.977Z,17.23
2018-07-11T04:30:33.247Z,17.34
2018-07-11T04:33:03.606Z,17.51
2018-07-11T04:35:33.805Z,17.58
2018-07-11T04:38:04.129Z,17.60
2018-07-11T04:40:34.528Z,17.52
2018-07-11T04:43:04.891Z,17.55
2018-07-11T04:45:35.474Z,17.57
2018-07-11T04:48:06.913Z,17.52
2018-07-11T04:50:37.442Z,17.56
2018-07-11T04:53:12.182Z,17.55
2018-07-11T04:55:43.805Z,17.58
2018-07-11T04:58:14.058Z,17.60
2018-07-11T05:00:44.301Z,17.63
2018-07-11T05:03:14.515Z,17.65
2018-07-11T05:05:44.732Z,17.73
2018-07-11T05:08:15.012Z,17.79
2018-07-11T05:10:45.240Z,17.86
2018-07-11T05:13:15.491Z,17.93
2018-07-11T05:15:45.742Z,17.98
2018-07-11T05:18:16.349Z,17.96
2018-07-11T05:20:47.174Z,17.93
2018-07-11T05:23:17.421Z,17.89
2018-07-11T05:25:47.610Z,17.92
2018-07-11T05:28:17.805Z,17.91
2018-07-11T05:30:48.042Z,17.88
2018-07-11T05:33:18.325Z,17.91
2018-07-11T05:35:48.561Z,17.88
2018-07-11T05:38:19.651Z,17.81
2018-07-11T05:40:49.894Z,17.82
2018-07-11T05:43:20.071Z,17.80
2018-07-11T05:45:50.296Z,17.78
2018-07-11T05:48:21.576Z,17.75
2018-07-11T05:50:51.815Z,17.77
2018-07-11T05:53:21.828Z,17.74
2018-07-11T05:55:52.099Z,17.74
2018-07-11T05:58:22.621Z,17.78
2018-07-11T06:00:52.924Z,17.79
2018-07-11T06:03:23.290Z,17.77
2018-07-11T06:05:53.886Z,17.79
2018-07-11T06:08:24.413Z,17.85
2018-07-11T06:10:54.889Z,17.84
2018-07-11T06:13:24.915Z,17.83
2018-07-11T06:15:55.093Z,17.81
2018-07-11T06:18:25.753Z,17.89
2018-07-11T06:20:56.016Z,17.82
2018-07-11T06:23:25.985Z,17.82
2018-07-11T06:25:56.002Z,17.85
2018-07-11T06:28:26.186Z,17.82
2018-07-11T06:30:56.397Z,17.93
2018-07-11T06:33:26.778Z,17.91
2018-07-11T06:35:56.750Z,17.98
2018-07-11T06:38:26.934Z,18.05
2018-07-11T06:40:57.166Z,18.09
2018-07-11T06:43:27.350Z,18.20
2018-07-11T06:45:57.582Z,18.23
2018-07-11T06:48:27.805Z,18.31
2018-07-11T06:50:57.845Z,18.38
2018-07-11T06:53:27.865Z,18.54
2018-07-11T06:55:58.065Z,18.65
2018-07-11T06:58:28.295Z,18.77
2018-07-11T07:00:58.476Z,18.99
2018-07-11T07:03:28.762Z,19.00
2018-07-11T07:05:59.030Z,19.20
2018-07-11T07:08:29.229Z,19.48
2018-07-11T07:10:59.694Z,19.66
2018-07-11T07:13:30.169Z,19.78
2018-07-11T07:16:01.082Z,19.96
2018-07-11T07:18:31.935Z,20.14
2018-07-11T07:21:02.891Z,20.32
2018-07-11T07:23:34.374Z,20.50
2018-07-11T07:26:05.038Z,20.56
2018-07-11T07:28:35.278Z,20.65
2018-07-11T07:31:05.621Z,20.86
2018-07-11T07:33:35.914Z,20.93
2018-07-11T07:36:06.198Z,20.93
2018-07-11T07:38:39.761Z,21.01
2018-07-11T07:41:10.459Z,21.02
2018-07-11T07:43:42.590Z,21.07
2018-07-11T07:46:13.471Z,21.23
2018-07-11T07:48:44.108Z,21.28
2018-07-11T07:51:14.714Z,21.06
2018-07-11T07:53:45.609Z,20.77
2018-07-11T07:56:16.446Z,20.70
2018-07-11T07:58:46.699Z,20.70
2018-07-11T08:01:17.589Z,20.82
2018-07-11T08:03:47.581Z,20.97
2018-07-11T08:06:18.519Z,20.92
2018-07-11T08:08:50.693Z,21.02
2018-07-11T08:11:21.598Z,21.04
2018-07-11T08:13:52.462Z,21.11
2018-07-11T08:16:23.286Z,21.25
2018-07-11T08:18:54.054Z,21.56
2018-07-11T08:21:24.754Z,21.79
2018-07-11T08:24:06.712Z,21.90
2018-07-11T08:26:48.868Z,21.89
2018-07-11T08:29:31.413Z,21.90
2018-07-11T08:33:15.046Z,21.79
2018-07-11T08:36:00.407Z,22.00
2018-07-11T08:38:56.480Z,22.30
2018-07-11T08:41:38.252Z,22.74
2018-07-11T08:44:19.971Z,23.30
2018-07-11T08:50:03.173Z,23.73
2018-07-11T08:54:48.900Z,24.50
2018-07-11T08:57:28.983Z,24.98
2018-07-11T09:00:12.375Z,25.21
2018-07-11T09:03:58.247Z,25.28
2018-07-11T09:07:37.245Z,25.40
2018-07-11T09:11:22.132Z,25.65
2018-07-11T09:14:38.448Z,25.45
2018-07-11T09:17:17.062Z,25.39
2018-07-11T09:24:09.561Z,25.32
2018-07-11T09:26:40.922Z,24.89
2018-07-11T09:29:11.974Z,24.63
2018-07-11T09:31:43.487Z,24.55
2018-07-11T09:34:14.405Z,24.92
2018-07-11T09:36:45.410Z,25.34
2018-07-11T09:39:16.216Z,25.43
2018-07-11T09:41:47.036Z,25.39
2018-07-11T09:44:17.590Z,25.12
2018-07-11T09:46:48.206Z,24.73
2018-07-11T09:49:18.989Z,24.39
2018-07-11T09:51:49.936Z,24.14
2018-07-11T09:54:20.761Z,23.94
2018-07-11T09:56:51.885Z,23.69
2018-07-11T09:59:22.173Z,23.47
2018-07-11T10:01:53.055Z,23.33
2018-07-11T10:04:23.298Z,23.27
2018-07-11T10:06:54.544Z,23.33
2018-07-11T10:09:24.789Z,23.39
2018-07-11T10:11:55.040Z,23.37
2018-07-11T10:14:25.824Z,23.32
2018-07-11T10:16:56.035Z,23.42
2018-07-11T10:19:26.865Z,23.90
2018-07-11T10:21:57.431Z,24.32
2018-07-11T10:24:28.270Z,24.64
2018-07-11T10:26:59.061Z,24.75
2018-07-11T10:29:29.865Z,24.83
2018-07-11T10:32:00.720Z,25.03
2018-07-11T10:34:31.567Z,25.29
2018-07-11T10:37:02.571Z,25.54
2018-07-11T10:39:33.429Z,25.66
2018-07-11T10:42:04.213Z,25.66
2018-07-11T10:44:35.025Z,25.80
2018-07-11T10:47:07.781Z,26.06
2018-07-11T10:49:38.613Z,26.74
2018-07-11T10:52:09.706Z,27.23
2018-07-11T10:54:40.969Z,27.61
2018-07-11T10:57:11.733Z,27.98
2018-07-11T10:59:42.838Z,28.25
2018-07-11T11:02:18.112Z,28.38
2018-07-11T11:04:48.994Z,28.25
2018-07-11T11:07:19.997Z,28.30
2018-07-11T11:09:50.841Z,28.37
2018-07-11T11:12:21.651Z,28.10
2018-07-11T11:14:52.521Z,27.83
2018-07-11T11:17:23.329Z,27.73
2018-07-11T11:19:54.149Z,27.80
2018-07-11T11:22:24.957Z,27.86
2018-07-11T11:24:55.865Z,27.90
2018-07-11T11:27:26.638Z,28.03
2018-07-11T11:29:57.537Z,27.82
2018-07-11T11:32:28.454Z,27.53
2018-07-11T11:34:59.575Z,27.68
2018-07-11T11:37:30.773Z,27.81
2018-07-11T11:40:01.604Z,27.63
2018-07-11T11:42:32.603Z,27.94
2018-07-11T11:45:03.468Z,28.07
2018-07-11T11:47:34.275Z,27.74
2018-07-11T11:50:05.481Z,27.82
2018-07-11T11:52:36.268Z,27.31
2018-07-11T11:55:07.106Z,27.29
2018-07-11T11:57:37.871Z,27.05
2018-07-11T12:00:08.698Z,27.04
2018-07-11T12:02:39.474Z,27.31
2018-07-11T12:05:10.285Z,27.64
2018-07-11T12:07:41.147Z,27.86
2018-07-11T12:10:12.080Z,28.04
2018-07-11T12:12:42.885Z,27.83
2018-07-11T12:15:14.541Z,27.96
2018-07-11T12:17:45.333Z,27.97
2018-07-11T12:20:16.159Z,28.14
2018-07-11T12:22:46.996Z,28.37
2018-07-11T12:25:18.073Z,28.44
2018-07-11T12:27:48.822Z,28.15
2018-07-11T12:30:19.824Z,28.09
2018-07-11T12:32:50.533Z,28.09
2018-07-11T12:35:21.311Z,27.93
2018-07-11T12:37:52.360Z,27.61
2018-07-11T12:40:22.987Z,27.64
2018-07-11T12:42:53.761Z,27.81
2018-07-11T12:45:24.577Z,27.77
2018-07-11T12:48:00.444Z,27.35
2018-07-11T12:50:31.249Z,27.06
2018-07-11T12:53:02.185Z,27.12
2018-07-11T12:55:33.045Z,26.95
2018-07-11T12:58:03.913Z,26.97
2018-07-11T13:00:34.533Z,27.13
2018-07-11T13:03:05.357Z,27.35
2018-07-11T13:05:36.177Z,27.44
2018-07-11T13:08:06.825Z,27.63
2018-07-11T13:10:38.001Z,27.68
2018-07-11T13:13:08.778Z,27.65
2018-07-11T13:15:39.587Z,27.45
2018-07-11T13:18:10.386Z,27.31
2018-07-11T13:20:41.191Z,27.27
2018-07-11T13:23:11.972Z,27.27
2018-07-11T13:25:42.643Z,27.26
2018-07-11T13:28:13.662Z,27.25
2018-07-11T13:30:44.529Z,27.28
2018-07-11T13:33:16.374Z,27.29
2018-07-11T13:35:47.188Z,27.33
2018-07-11T13:38:18.193Z,27.34
2018-07-11T13:40:48.972Z,27.10
2018-07-11T13:43:19.737Z,26.97
2018-07-11T13:45:50.294Z,27.03
2018-07-11T13:48:20.917Z,27.05
2018-07-11T13:50:52.093Z,27.13
2018-07-11T13:53:22.934Z,27.02
2018-07-11T13:55:53.786Z,27.13
2018-07-11T13:58:24.395Z,27.20
2018-07-11T14:00:59.146Z,27.19
2018-07-11T14:03:30.057Z,26.92
2018-07-11T14:06:00.681Z,26.79
2018-07-11T14:08:31.519Z,26.59
2018-07-11T14:11:03.402Z,26.50
2018-07-11T14:13:34.738Z,26.39
2018-07-11T14:16:05.458Z,26.30
2018-07-11T14:18:36.281Z,26.21
2018-07-11T14:21:07.689Z,26.19
2018-07-11T14:23:41.169Z,26.17
2018-07-11T14:26:14.794Z,26.17
2018-07-11T14:28:53.375Z,26.19
2018-07-11T14:31:35.912Z,26.13
2018-07-11T14:34:08.676Z,26.09
2018-07-11T14:36:39.632Z,26.11
2018-07-11T14:39:10.557Z,26.17
2018-07-11T14:41:41.344Z,26.19
2018-07-11T14:44:12.216Z,26.25
2018-07-11T14:46:43.135Z,26.18
2018-07-11T14:49:15.745Z,26.10
2018-07-11T14:51:46.661Z,26.12
2018-07-11T14:54:17.821Z,26.07
2018-07-11T14:56:48.755Z,26.03
2018-07-11T14:59:19.603Z,25.95
2018-07-11T15:01:50.441Z,25.69
2018-07-11T15:04:21.202Z,25.42
2018-07-11T15:06:51.782Z,25.11
2018-07-11T15:09:22.850Z,24.85
2018-07-11T15:11:54.024Z,24.69
2018-07-11T15:14:25.018Z,24.57
2018-07-11T15:16:55.906Z,24.46
2018-07-11T15:19:26.733Z,24.45
2018-07-11T15:21:57.535Z,24.49
2018-07-11T15:24:28.371Z,24.48
2018-07-11T15:26:59.106Z,24.51
2018-07-11T15:29:29.677Z,24.47
2018-07-11T15:32:00.893Z,24.40
2018-07-11T15:34:32.049Z,24.37
2018-07-11T15:37:02.985Z,24.36
2018-07-11T15:39:33.974Z,24.32
2018-07-11T15:42:05.076Z,24.27
2018-07-11T15:44:35.679Z,24.24
2018-07-11T15:47:07.051Z,24.21
2018-07-11T15:49:37.876Z,24.20
2018-07-11T15:52:08.745Z,24.11
2018-07-11T15:54:40.054Z,24.09
2018-07-11T15:57:11.217Z,24.12
2018-07-11T15:59:53.626Z,24.19
2018-07-11T16:02:24.742Z,24.21
2018-07-11T16:04:55.601Z,24.30
2018-07-11T16:07:29.873Z,24.53
2018-07-11T16:10:00.909Z,24.63
2018-07-11T16:12:31.713Z,24.51
2018-07-11T16:15:02.481Z,24.37
2018-07-11T16:17:33.551Z,24.35
2018-07-11T16:20:04.389Z,24.34
2018-07-11T16:22:35.272Z,24.30
2018-07-11T16:25:06.513Z,24.21
2018-07-11T16:27:37.133Z,24.05
2018-07-11T16:30:07.898Z,23.83
2018-07-11T16:32:38.743Z,23.58
2018-07-11T16:35:09.505Z,23.40
2018-07-11T16:37:40.325Z,23.17
2018-07-11T16:40:11.182Z,22.96
2018-07-11T16:42:42.707Z,22.76
2018-07-11T16:45:13.828Z,22.52
2018-07-11T16:47:45.418Z,22.31
2018-07-11T16:50:16.897Z,22.21
2018-07-11T16:52:47.887Z,22.03
2018-07-11T16:55:18.508Z,21.85
2018-07-11T16:57:50.843Z,21.66
2018-07-11T17:00:25.137Z,21.37
2018-07-11T17:03:12.228Z,21.17
2018-07-11T17:05:48.828Z,20.94
2018-07-11T17:08:29.565Z,20.71
2018-07-11T17:11:07.745Z,20.51
2018-07-11T17:13:38.170Z,20.32
2018-07-11T17:16:08.549Z,20.08
2018-07-11T17:18:45.127Z,19.92
2018-07-11T17:21:23.112Z,19.76
2018-07-11T17:23:57.616Z,19.59
2018-07-11T17:26:27.889Z,19.32
2018-07-11T17:28:59.973Z,18.89
2018-07-11T17:31:30.491Z,18.39
2018-07-11T17:34:00.721Z,17.86
2018-07-11T17:36:33.900Z,17.60
2018-07-11T17:39:05.326Z,17.36
2018-07-11T17:41:36.402Z,17.24
2018-07-11T17:44:06.672Z,17.11
2018-07-11T17:46:37.224Z,16.99
2018-07-11T17:49:10.919Z,16.87
2018-07-11T17:52:19.085Z,16.80
2018-07-11T17:55:10.597Z,16.75
2018-07-11T17:58:01.127Z,16.69
2018-07-11T18:00:36.835Z,16.68
2018-07-11T18:03:17.701Z,16.67
2018-07-11T18:05:57.328Z,16.67
2018-07-11T18:08:33.946Z,16.75
2018-07-11T18:11:04.291Z,16.80
2018-07-11T18:13:42.954Z,16.85
2018-07-11T18:16:40.106Z,16.97
2018-07-11T18:19:21.089Z,17.12
2018-07-11T18:22:02.969Z,17.12
2018-07-11T18:24:41.011Z,17.08
2018-07-11T18:27:22.617Z,17.03
2018-07-11T18:30:03.544Z,17.04
2018-07-11T18:32:50.942Z,17.02
2018-07-11T18:35:31.382Z,16.91
2018-07-11T18:39:08.182Z,16.85
2018-07-11T18:41:42.841Z,16.93
2018-07-11T18:45:11.628Z,16.90
2018-07-11T18:47:58.113Z,16.83
2018-07-11T18:50:46.958Z,16.86
2018-07-11T18:54:26.799Z,16.91
2018-07-11T18:57:08.876Z,16.87
2018-07-11T19:00:50.338Z,16.82
2018-07-11T19:03:31.501Z,16.74
2018-07-11T19:06:13.753Z,16.80
2018-07-11T19:08:53.681Z,16.77
2018-07-11T19:11:28.400Z,16.81
2018-07-11T19:14:05.142Z,16.80
2018-07-11T19:18:53.197Z,16.79
2018-07-11T19:21:56.857Z,16.75
2018-07-11T19:24:38.694Z,16.68
2018-07-11T19:27:21.283Z,16.68
2018-07-11T19:30:02.967Z,16.65
2018-07-11T19:32:39.206Z,16.60
2018-07-11T19:35:16.695Z,16.63
2018-07-11T19:38:57.090Z,16.69
2018-07-11T19:41:37.265Z,16.60
2018-07-11T19:44:21.003Z,16.59
2018-07-11T19:49:05.933Z,16.58
2018-07-11T19:51:49.340Z,16.51
2018-07-11T19:54:35.462Z,16.42
2018-07-11T19:57:05.492Z,16.42
2018-07-11T19:59:35.899Z,16.42
2018-07-11T20:02:06.209Z,16.48
2018-07-11T20:04:36.544Z,16.46
2018-07-11T20:07:07.187Z,16.50
2018-07-11T20:09:37.471Z,16.55
2018-07-11T20:12:07.474Z,16.57
2018-07-11T20:14:37.692Z,16.58
2018-07-11T20:17:07.908Z,16.61
2018-07-11T20:19:38.139Z,16.57
2018-07-11T20:22:08.342Z,16.50
2018-07-11T20:24:38.822Z,16.43
2018-07-11T20:27:09.040Z,16.40
2018-07-11T20:29:39.329Z,16.39
2018-07-11T20:32:09.606Z,16.43
2018-07-11T20:34:39.865Z,16.48
2018-07-11T20:37:10.456Z,16.47
2018-07-11T20:39:40.685Z,16.37
2018-07-11T20:42:10.985Z,16.30
2018-07-11T20:44:41.204Z,16.36
2018-07-11T20:47:11.443Z,16.40
2018-07-11T20:49:41.698Z,16.42
2018-07-11T20:52:11.900Z,16.37
2018-07-11T20:54:42.126Z,16.33
2018-07-11T20:57:12.685Z,16.31
2018-07-11T20:59:53.937Z,16.39
2018-07-11T21:02:35.442Z,16.34
2018-07-11T21:07:29.043Z,16.28
2018-07-11T21:11:17.145Z,16.29
2018-07-11T21:18:04.536Z,16.26
2018-07-11T21:20:35.003Z,16.12
2018-07-11T21:23:05.306Z,16.10
2018-07-11T21:25:35.709Z,16.11
2018-07-11T21:28:05.945Z,16.07
2018-07-11T21:30:37.422Z,16.05
2018-07-11T21:33:11.208Z,16.01
2018-07-11T21:35:42.797Z,15.96
2018-07-11T21:38:13.088Z,16.06
2018-07-11T21:40:43.448Z,16.13
2018-07-11T21:43:16.267Z,16.07
2018-07-11T21:45:46.675Z,16.03
2018-07-11T21:48:16.886Z,15.98
2018-07-11T21:50:47.810Z,15.99
2018-07-11T21:53:19.749Z,15.96
2018-07-11T21:55:49.995Z,16.00
2018-07-11T21:58:20.369Z,16.03
2018-07-11T22:00:50.649Z,16.01
2018-07-11T22:03:20.648Z,16.07
2018-07-11T22:05:50.861Z,16.24
2018-07-11T22:08:21.061Z,16.23
2018-07-11T22:10:51.270Z,16.15
2018-07-11T22:13:21.538Z,16.26
2018-07-11T22:15:51.821Z,16.40
2018-07-11T22:18:35.769Z,16.43
2018-07-11T22:21:05.625Z,16.35
2018-07-11T22:23:33.899Z,16.29
2018-07-11T22:26:02.404Z,16.34
2018-07-11T22:28:30.678Z,16.47
2018-07-11T22:30:58.949Z,16.43
2018-07-11T22:33:27.328Z,16.36
2018-07-11T22:35:55.986Z,16.31
2018-07-11T22:38:24.281Z,16.36
2018-07-11T22:40:52.618Z,16.35
2018-07-11T22:43:20.973Z,16.25
2018-07-11T22:45:49.278Z,16.21
2018-07-11T22:48:17.533Z,16.22
2018-07-11T22:50:45.928Z,16.26
2018-07-11T22:53:14.315Z,16.30
2018-07-11T22:55:42.782Z,16.32
2018-07-11T22:58:11.424Z,16.35
2018-07-11T23:00:40.276Z,16.41
2018-07-11T23:03:08.777Z,16.36
2018-07-11T23:05:37.092Z,16.32
2018-07-11T23:08:05.461Z,16.34
2018-07-11T23:10:33.761Z,16.34
2018-07-11T23:13:02.014Z,16.38
2018-07-11T23:15:30.273Z,16.37
2018-07-11T23:17:58.529Z,16.39
2018-07-11T23:20:26.876Z,16.38
2018-07-11T23:22:55.355Z,16.35
2018-07-11T23:25:23.654Z,16.38
2018-07-11T23:27:51.925Z,16.36
2018-07-11T23:30:20.223Z,16.48
2018-07-11T23:32:48.535Z,16.55
2018-07-11T23:35:16.795Z,16.54
2018-07-11T23:37:45.097Z,16.60
2018-07-11T23:40:13.446Z,16.57
2018-07-11T23:42:41.709Z,16.50
2018-07-11T23:45:10.001Z,16.45
2018-07-11T23:47:38.270Z,16.42
2018-07-11T23:50:06.533Z,16.43
2018-07-11T23:52:34.801Z,16.29
2018-07-11T23:55:03.089Z,16.13
2018-07-11T23:57:31.403Z,16.00
2018-07-11T23:59:59.694Z,15.91
